Time;durP1;ratioP1;P1;durP2;ratioP2;P2;SDS_P1;SDS_P2;PMS_P1;PMS_P2;Temp;Humidity;BMP_temperature;BMP_pressure;BME280_temperature;BME280_humidity;BME280_pressure;Samples;Min_cycle;Max_cycle;Signal;HPM_P1;HPM_P2
2023/07/07 00:01:29;;;;;;;;;;;19.60;67.80;;;;;;5109213;28;19911;-66
2023/07/07 00:03:55;;;;;;;;;;;19.50;67.80;;;;;;5109440;28;19957;-65
2023/07/07 00:06:21;;;;;;;;;;;19.50;67.90;;;;;;5107694;28;19951;-65
2023/07/07 00:08:47;;;;;;;;;;;19.50;67.90;;;;;;5109188;28;19914;-66
2023/07/07 00:11:12;;;;;;;;;;;19.40;68.10;;;;;;5107811;28;19915;-66
2023/07/07 00:13:38;;;;;;;;;;;19.40;68.80;;;;;;5109121;28;20010;-66
2023/07/07 00:16:04;;;;;;;;;;;19.40;68.20;;;;;;5107358;28;20241;-66
2023/07/07 00:18:29;;;;;;;;;;;19.30;68.30;;;;;;5111004;28;19968;-66
2023/07/07 00:20:59;;;;;;;;;;;19.30;68.20;;;;;;5109130;28;19908;-66
2023/07/07 00:23:25;;;;;;;;;;;19.30;68.30;;;;;;5108999;28;19916;-65
2023/07/07 00:25:58;;;;;;;;;;;19.20;68.20;;;;;;5093354;28;19922;-65
2023/07/07 00:28:23;;;;;;;;;;;19.20;68.40;;;;;;5108942;28;19918;-66
2023/07/07 00:30:49;;;;;;;;;;;19.20;68.60;;;;;;5109145;28;19912;-65
2023/07/07 00:33:14;;;;;;;;;;;19.10;68.70;;;;;;5107853;28;19911;-65
2023/07/07 00:35:46;;;;;;;;;;;19.10;68.70;;;;;;5108359;28;19908;-65
2023/07/07 00:38:12;;;;;;;;;;;19.10;68.70;;;;;;5108766;28;19912;-65
2023/07/07 00:40:38;;;;;;;;;;;19.10;68.70;;;;;;5109088;28;19912;-65
2023/07/07 00:43:13;;;;;;;;;;;19.00;68.70;;;;;;5109115;28;20349;-65
2023/07/07 00:45:39;;;;;;;;;;;19.00;68.80;;;;;;5108556;28;19912;-65
2023/07/07 00:48:06;;;;;;;;;;;19.00;68.90;;;;;;5108920;28;19964;-66
2023/07/07 00:50:36;;;;;;;;;;;18.90;68.90;;;;;;5107348;28;20002;-65
2023/07/07 00:53:02;;;;;;;;;;;18.90;69.00;;;;;;5108337;28;19912;-65
2023/07/07 00:55:33;;;;;;;;;;;18.90;69.00;;;;;;5094765;28;19912;-65
2023/07/07 00:58:01;;;;;;;;;;;18.90;69.20;;;;;;5108780;28;19911;-65
2023/07/07 01:00:27;;;;;;;;;;;18.80;69.20;;;;;;5108675;28;19911;-66
2023/07/07 01:02:57;;;;;;;;;;;18.80;69.00;;;;;;5108675;28;19925;-66
2023/07/07 01:05:28;;;;;;;;;;;18.70;69.20;;;;;;5107238;28;19912;-66
2023/07/07 01:07:56;;;;;;;;;;;18.70;69.30;;;;;;5108334;28;19907;-66
2023/07/07 01:10:21;;;;;;;;;;;18.70;69.50;;;;;;5108568;28;20327;-65
2023/07/07 01:12:48;;;;;;;;;;;18.70;69.50;;;;;;5108683;28;19916;-66
2023/07/07 01:15:14;;;;;;;;;;;18.60;69.40;;;;;;5108351;28;19908;-65
2023/07/07 01:17:49;;;;;;;;;;;18.60;69.50;;;;;;5108407;28;19911;-65
2023/07/07 01:20:19;;;;;;;;;;;18.60;69.50;;;;;;5108504;28;19969;-65
2023/07/07 01:22:57;;;;;;;;;;;18.50;70.20;;;;;;5108551;28;19969;-65
2023/07/07 01:25:28;;;;;;;;;;;18.50;69.50;;;;;;5094305;28;20015;-65
2023/07/07 01:27:55;;;;;;;;;;;18.50;69.80;;;;;;5107504;28;19907;-65
2023/07/07 01:30:23;;;;;;;;;;;18.50;69.70;;;;;;5112144;28;19916;-65
2023/07/07 01:32:49;;;;;;;;;;;18.50;69.70;;;;;;5101927;28;20265;-66
2023/07/07 01:35:16;;;;;;;;;;;18.40;69.90;;;;;;5107884;28;20372;-65
2023/07/07 01:37:56;;;;;;;;;;;18.40;69.90;;;;;;5111156;28;20353;-65
2023/07/07 01:40:24;;;;;;;;;;;18.40;69.90;;;;;;5111891;28;20352;-66
2023/07/07 01:42:52;;;;;;;;;;;18.40;69.90;;;;;;5111801;28;19908;-65
2023/07/07 01:45:32;;;;;;;;;;;18.30;70.10;;;;;;5111813;28;20014;-66
2023/07/07 01:48:32;;;;;;;;;;;18.30;70.00;;;;;;5110502;28;20053;-66
2023/07/07 01:50:57;;;;;;;;;;;18.30;70.20;;;;;;5110374;28;20723;-65
2023/07/07 01:53:24;;;;;;;;;;;18.20;70.20;;;;;;5110265;28;19991;-66
2023/07/07 01:55:53;;;;;;;;;;;18.20;70.10;;;;;;5096162;28;19907;-65
2023/07/07 01:58:20;;;;;;;;;;;18.20;70.10;;;;;;5111439;28;19908;-65
2023/07/07 02:00:46;;;;;;;;;;;18.20;70.40;;;;;;5111725;28;19932;-65
2023/07/07 02:03:14;;;;;;;;;;;18.20;70.30;;;;;;5111877;28;19907;-65
2023/07/07 02:05:40;;;;;;;;;;;18.10;70.40;;;;;;5110177;28;19919;-65
2023/07/07 02:08:05;;;;;;;;;;;18.10;70.60;;;;;;5111615;28;19911;-65
2023/07/07 02:10:31;;;;;;;;;;;18.10;70.40;;;;;;5123075;27;19911;-65
2023/07/07 02:12:56;;;;;;;;;;;18.00;70.40;;;;;;5132068;27;19919;-66
2023/07/07 02:15:22;;;;;;;;;;;18.00;70.70;;;;;;5131681;27;20062;-65
2023/07/07 02:17:48;;;;;;;;;;;18.00;70.80;;;;;;5132118;27;20324;-65
2023/07/07 02:20:14;;;;;;;;;;;18.00;70.70;;;;;;5121105;27;19920;-65
2023/07/07 02:22:39;;;;;;;;;;;17.90;70.60;;;;;;5111134;28;19916;-65
2023/07/07 02:25:06;;;;;;;;;;;17.90;70.60;;;;;;5097688;28;19912;-65
2023/07/07 02:27:31;;;;;;;;;;;17.90;70.80;;;;;;5110466;28;19916;-65
2023/07/07 02:29:57;;;;;;;;;;;17.90;70.80;;;;;;5110970;28;19919;-65
2023/07/07 02:32:22;;;;;;;;;;;17.80;71.00;;;;;;5110989;28;19912;-65
2023/07/07 02:34:48;;;;;;;;;;;17.80;70.80;;;;;;5109645;28;19929;-65
2023/07/07 02:37:17;;;;;;;;;;;17.80;71.00;;;;;;5110326;28;20626;-65
2023/07/07 02:39:43;;;;;;;;;;;17.80;71.10;;;;;;5109456;28;19915;-65
2023/07/07 02:42:08;;;;;;;;;;;17.80;71.00;;;;;;5111007;27;19954;-65
2023/07/07 02:44:34;;;;;;;;;;;17.70;71.00;;;;;;5109455;28;20359;-65
2023/07/07 02:47:00;;;;;;;;;;;17.70;71.20;;;;;;5109249;28;20325;-65
2023/07/07 02:49:25;;;;;;;;;;;17.70;71.20;;;;;;5110597;28;19907;-65
2023/07/07 02:51:51;;;;;;;;;;;17.70;71.20;;;;;;5109358;28;19911;-65
2023/07/07 02:54:16;;;;;;;;;;;17.60;71.10;;;;;;5102409;28;19908;-65
2023/07/07 02:56:42;;;;;;;;;;;17.60;71.20;;;;;;5102864;28;20010;-65
2023/07/07 02:59:07;;;;;;;;;;;17.60;71.40;;;;;;5110393;28;20349;-65
2023/07/07 03:01:33;;;;;;;;;;;17.60;71.20;;;;;;5108998;28;19982;-65
2023/07/07 03:03:58;;;;;;;;;;;17.60;71.50;;;;;;5110471;28;19912;-65
2023/07/07 03:06:24;;;;;;;;;;;17.60;71.50;;;;;;5108614;28;20608;-65
2023/07/07 03:08:50;;;;;;;;;;;17.50;71.60;;;;;;5110201;28;19908;-65
2023/07/07 03:11:17;;;;;;;;;;;17.50;71.40;;;;;;5110113;28;19911;-65
2023/07/07 03:13:44;;;;;;;;;;;17.50;71.70;;;;;;5108860;28;19920;-65
2023/07/07 03:16:23;;;;;;;;;;;17.50;71.50;;;;;;5109958;28;19915;-65
2023/07/07 03:18:52;;;;;;;;;;;17.50;71.70;;;;;;5110062;28;19919;-65
2023/07/07 03:21:19;;;;;;;;;;;17.40;71.60;;;;;;5110147;28;19912;-65
2023/07/07 03:23:45;;;;;;;;;;;17.40;71.70;;;;;;5107722;28;19923;-65
2023/07/07 03:26:15;;;;;;;;;;;17.40;71.70;;;;;;5098185;28;20186;-65
2023/07/07 03:28:40;;;;;;;;;;;17.40;71.90;;;;;;5109589;28;20268;-65
2023/07/07 03:31:25;;;;;;;;;;;17.40;71.90;;;;;;5110084;28;19969;-65
2023/07/07 03:33:52;;;;;;;;;;;17.30;71.90;;;;;;5109639;28;19908;-65
2023/07/07 03:36:19;;;;;;;;;;;17.40;71.90;;;;;;5107500;28;19915;-65
2023/07/07 03:38:45;;;;;;;;;;;17.30;71.80;;;;;;5109260;28;19923;-65
2023/07/07 03:41:13;;;;;;;;;;;17.30;71.80;;;;;;5108191;28;19908;-65
2023/07/07 03:43:38;;;;;;;;;;;17.30;71.90;;;;;;5104718;28;19912;-65
2023/07/07 03:46:04;;;;;;;;;;;17.30;72.10;;;;;;5109435;28;19974;-65
2023/07/07 03:48:30;;;;;;;;;;;17.20;72.20;;;;;;5109724;28;19912;-65
2023/07/07 03:50:59;;;;;;;;;;;17.20;71.90;;;;;;5109086;28;19915;-65
2023/07/07 03:53:26;;;;;;;;;;;17.20;72.20;;;;;;5109773;28;20388;-65
2023/07/07 03:55:51;;;;;;;;;;;17.20;72.20;;;;;;5095202;28;19964;-65
2023/07/07 03:58:17;;;;;;;;;;;17.20;72.20;;;;;;5109400;28;20550;-65
2023/07/07 04:00:42;;;;;;;;;;;17.20;72.10;;;;;;5109466;28;19911;-65
2023/07/07 04:03:08;;;;;;;;;;;17.20;72.20;;;;;;5109384;28;19908;-65
2023/07/07 04:05:39;;;;;;;;;;;17.20;72.30;;;;;;5107731;28;19912;-65
2023/07/07 04:08:05;;;;;;;;;;;17.10;72.30;;;;;;5109165;28;20459;-65
2023/07/07 04:10:30;;;;;;;;;;;17.10;72.30;;;;;;5109418;28;19915;-65
2023/07/07 04:12:56;;;;;;;;;;;17.10;72.50;;;;;;5109153;28;20052;-65
2023/07/07 04:15:21;;;;;;;;;;;17.10;72.40;;;;;;5108912;28;19908;-65
2023/07/07 04:17:47;;;;;;;;;;;17.10;72.30;;;;;;5109015;28;19915;-65
2023/07/07 04:20:12;;;;;;;;;;;17.10;72.60;;;;;;5112372;27;19922;-65
2023/07/07 04:22:38;;;;;;;;;;;17.10;72.60;;;;;;5109097;28;20288;-65
2023/07/07 04:25:14;;;;;;;;;;;17.10;72.50;;;;;;5095886;28;19908;-65
2023/07/07 04:27:39;;;;;;;;;;;17.10;72.50;;;;;;5087162;28;19912;-65
2023/07/07 04:30:05;;;;;;;;;;;17.00;72.70;;;;;;5088686;28;20442;-65
2023/07/07 04:32:32;;;;;;;;;;;17.00;72.50;;;;;;5087493;28;19916;-65
2023/07/07 04:34:59;;;;;;;;;;;17.00;72.60;;;;;;5098180;28;20399;-65
2023/07/07 04:37:24;;;;;;;;;;;17.00;72.60;;;;;;5108612;28;20425;-65
2023/07/07 04:39:50;;;;;;;;;;;17.00;72.60;;;;;;5107495;28;19912;-65
2023/07/07 04:42:15;;;;;;;;;;;17.00;72.70;;;;;;5108840;28;20365;-65
2023/07/07 04:44:41;;;;;;;;;;;17.00;72.70;;;;;;5107638;28;19912;-65
2023/07/07 04:47:06;;;;;;;;;;;17.00;72.70;;;;;;5107219;28;19912;-65
2023/07/07 04:49:32;;;;;;;;;;;17.00;72.80;;;;;;5108742;28;20424;-65
2023/07/07 04:51:57;;;;;;;;;;;17.00;72.80;;;;;;5108744;28;19918;-65
2023/07/07 04:54:23;;;;;;;;;;;17.00;73.10;;;;;;5101271;28;19912;-65
2023/07/07 04:56:48;;;;;;;;;;;17.00;72.80;;;;;;5102405;28;19953;-65
2023/07/07 04:59:16;;;;;;;;;;;17.00;73.00;;;;;;5108832;28;20010;-65
2023/07/07 05:01:42;;;;;;;;;;;17.00;73.00;;;;;;5109071;28;19912;-65
2023/07/07 05:04:08;;;;;;;;;;;17.00;73.00;;;;;;5110483;28;19912;-65
2023/07/07 05:06:36;;;;;;;;;;;17.00;72.90;;;;;;5110844;28;19939;-65
2023/07/07 05:09:03;;;;;;;;;;;17.00;72.90;;;;;;5112514;28;19958;-65
2023/07/07 05:11:30;;;;;;;;;;;17.00;73.00;;;;;;5112819;28;19916;-65
2023/07/07 05:13:56;;;;;;;;;;;17.00;73.00;;;;;;5112761;28;19969;-65
2023/07/07 05:16:23;;;;;;;;;;;17.00;73.00;;;;;;5112554;28;19916;-65
2023/07/07 05:18:49;;;;;;;;;;;17.00;73.00;;;;;;5112323;28;19911;-65
2023/07/07 05:21:16;;;;;;;;;;;17.00;72.90;;;;;;5112639;28;20421;-65
2023/07/07 05:23:41;;;;;;;;;;;17.00;73.00;;;;;;5110730;28;19927;-65
2023/07/07 05:26:07;;;;;;;;;;;17.00;73.10;;;;;;5100180;28;19912;-65
2023/07/07 05:28:34;;;;;;;;;;;17.00;73.10;;;;;;5111809;28;20205;-65
2023/07/07 05:31:00;;;;;;;;;;;17.00;73.10;;;;;;5112362;28;19916;-65
2023/07/07 05:33:27;;;;;;;;;;;17.00;73.20;;;;;;5112280;28;19907;-65
2023/07/07 05:35:53;;;;;;;;;;;17.00;73.10;;;;;;5111393;28;19912;-65
2023/07/07 05:38:20;;;;;;;;;;;17.00;73.20;;;;;;5110526;28;19914;-65
2023/07/07 05:40:46;;;;;;;;;;;17.10;73.30;;;;;;5111826;28;19908;-66
2023/07/07 05:43:12;;;;;;;;;;;17.10;73.20;;;;;;5111990;28;19915;-65
2023/07/07 05:45:37;;;;;;;;;;;17.10;73.30;;;;;;5111986;28;19912;-65
2023/07/07 05:48:03;;;;;;;;;;;17.10;73.30;;;;;;5111516;28;19922;-65
2023/07/07 05:50:28;;;;;;;;;;;17.10;73.30;;;;;;5111953;27;19912;-65
2023/07/07 05:52:54;;;;;;;;;;;17.10;73.40;;;;;;5110201;28;19911;-65
2023/07/07 05:55:24;;;;;;;;;;;17.10;73.30;;;;;;5096352;28;19963;-65
2023/07/07 05:57:49;;;;;;;;;;;17.10;73.50;;;;;;5111562;28;20368;-65
2023/07/07 06:00:16;;;;;;;;;;;17.10;73.40;;;;;;5111646;28;19915;-66
2023/07/07 06:02:42;;;;;;;;;;;17.10;73.40;;;;;;5111464;28;19976;-65
2023/07/07 06:05:07;;;;;;;;;;;17.10;73.30;;;;;;5111258;28;20440;-65
2023/07/07 06:07:33;;;;;;;;;;;17.10;73.40;;;;;;5111183;28;19912;-65
2023/07/07 06:09:58;;;;;;;;;;;17.20;73.40;;;;;;5111288;28;20411;-65
2023/07/07 06:12:24;;;;;;;;;;;17.20;73.40;;;;;;5126377;27;19922;-65
2023/07/07 06:14:49;;;;;;;;;;;17.20;73.30;;;;;;5131507;27;20002;-65
2023/07/07 06:17:15;;;;;;;;;;;17.20;73.40;;;;;;5131849;27;19907;-65
2023/07/07 06:19:40;;;;;;;;;;;17.20;73.40;;;;;;5125291;27;19920;-65
2023/07/07 06:22:06;;;;;;;;;;;17.20;73.30;;;;;;5111096;28;19912;-65
2023/07/07 06:24:31;;;;;;;;;;;17.20;73.40;;;;;;5100900;28;19971;-65
2023/07/07 06:26:57;;;;;;;;;;;17.20;73.30;;;;;;5105911;28;19976;-65
2023/07/07 06:29:22;;;;;;;;;;;17.30;73.30;;;;;;5111143;28;19919;-65
2023/07/07 06:31:48;;;;;;;;;;;17.20;73.30;;;;;;5111156;28;20606;-66
2023/07/07 06:34:13;;;;;;;;;;;17.30;73.30;;;;;;5109872;28;19964;-65
2023/07/07 06:36:40;;;;;;;;;;;17.30;73.30;;;;;;5110125;28;19912;-65
2023/07/07 06:39:05;;;;;;;;;;;17.30;73.30;;;;;;5110611;28;19916;-66
2023/07/07 06:41:31;;;;;;;;;;;17.30;73.20;;;;;;5110632;28;19923;-65
2023/07/07 06:43:57;;;;;;;;;;;17.30;73.20;;;;;;5110679;28;19912;-65
2023/07/07 06:46:24;;;;;;;;;;;17.40;73.30;;;;;;5110377;28;19919;-66
2023/07/07 06:48:50;;;;;;;;;;;17.40;73.10;;;;;;5111004;28;19908;-65
2023/07/07 06:51:15;;;;;;;;;;;17.40;73.10;;;;;;5110812;28;19908;-65
2023/07/07 06:53:41;;;;;;;;;;;17.40;73.00;;;;;;5109121;28;19919;-66
2023/07/07 06:56:08;;;;;;;;;;;17.50;72.90;;;;;;5098430;28;19999;-65
2023/07/07 06:58:33;;;;;;;;;;;17.40;72.90;;;;;;5110279;28;20010;-65
2023/07/07 07:00:59;;;;;;;;;;;17.50;72.90;;;;;;5110242;28;19994;-65
2023/07/07 07:03:24;;;;;;;;;;;17.50;72.80;;;;;;5109155;28;19908;-65
2023/07/07 07:05:50;;;;;;;;;;;17.50;72.70;;;;;;5109786;28;19960;-65
2023/07/07 07:08:15;;;;;;;;;;;17.50;72.70;;;;;;5110253;28;19907;-66
2023/07/07 07:10:41;;;;;;;;;;;17.60;72.60;;;;;;5110297;28;20401;-65
2023/07/07 07:13:08;;;;;;;;;;;17.60;72.60;;;;;;5110222;28;19923;-66
2023/07/07 07:15:33;;;;;;;;;;;17.60;72.50;;;;;;5108313;28;19947;-65
2023/07/07 07:17:59;;;;;;;;;;;17.60;72.50;;;;;;5108672;28;19951;-65
2023/07/07 07:20:25;;;;;;;;;;;17.60;72.30;;;;;;5109991;28;19915;-65
2023/07/07 07:22:50;;;;;;;;;;;17.60;72.30;;;;;;5109987;28;19919;-65
2023/07/07 07:25:16;;;;;;;;;;;17.70;72.20;;;;;;5094468;28;19959;-65
2023/07/07 07:27:42;;;;;;;;;;;17.70;72.10;;;;;;5109457;28;19911;-66
2023/07/07 07:30:07;;;;;;;;;;;17.70;72.10;;;;;;5110067;27;20405;-66
2023/07/07 07:32:33;;;;;;;;;;;17.70;72.10;;;;;;5109873;28;20488;-65
2023/07/07 07:34:59;;;;;;;;;;;17.70;71.90;;;;;;5109623;28;19930;-65
2023/07/07 07:37:25;;;;;;;;;;;17.80;71.90;;;;;;5109087;28;19912;-65
2023/07/07 07:39:50;;;;;;;;;;;17.80;71.90;;;;;;5108279;28;19923;-65
2023/07/07 07:42:16;;;;;;;;;;;17.80;71.80;;;;;;5109672;28;20317;-65
2023/07/07 07:44:42;;;;;;;;;;;17.90;71.60;;;;;;5109720;28;19907;-65
2023/07/07 07:47:07;;;;;;;;;;;17.90;71.60;;;;;;5107945;28;19912;-65
2023/07/07 07:49:33;;;;;;;;;;;17.90;71.60;;;;;;5109589;28;19946;-65
2023/07/07 07:51:59;;;;;;;;;;;18.00;71.50;;;;;;5107964;28;19920;-65
2023/07/07 07:54:24;;;;;;;;;;;18.00;71.50;;;;;;5109520;28;19907;-65
2023/07/07 07:56:50;;;;;;;;;;;18.00;71.40;;;;;;5109077;28;20003;-65
2023/07/07 07:59:16;;;;;;;;;;;18.00;71.60;;;;;;5109179;28;19912;-66
2023/07/07 08:01:42;;;;;;;;;;;18.10;71.60;;;;;;5109510;28;19919;-65
2023/07/07 08:04:08;;;;;;;;;;;18.10;71.30;;;;;;5109537;28;19912;-65
2023/07/07 08:06:33;;;;;;;;;;;18.10;71.60;;;;;;5107821;28;19949;-65
2023/07/07 08:08:59;;;;;;;;;;;18.10;71.20;;;;;;5109389;28;19907;-65
2023/07/07 08:11:40;;;;;;;;;;;18.20;71.20;;;;;;5109393;28;19915;-66
2023/07/07 08:14:09;;;;;;;;;;;18.20;71.20;;;;;;5107788;28;19952;-65
2023/07/07 08:16:34;;;;;;;;;;;18.20;71.20;;;;;;5108949;28;19955;-66
2023/07/07 08:19:00;;;;;;;;;;;18.30;71.20;;;;;;5114579;27;19954;-65
2023/07/07 08:21:25;;;;;;;;;;;18.30;71.30;;;;;;5109329;28;19984;-65
2023/07/07 08:23:51;;;;;;;;;;;18.30;70.90;;;;;;5106326;28;19924;-65
2023/07/07 08:26:16;;;;;;;;;;;18.40;71.10;;;;;;5098545;28;19912;-65
2023/07/07 08:28:42;;;;;;;;;;;18.40;70.90;;;;;;5109281;28;19912;-65
2023/07/07 08:31:07;;;;;;;;;;;18.50;70.80;;;;;;5107906;28;20069;-65
2023/07/07 08:33:33;;;;;;;;;;;18.50;70.60;;;;;;5109132;28;19912;-65
2023/07/07 08:35:58;;;;;;;;;;;18.50;70.70;;;;;;5106797;28;20308;-65
2023/07/07 08:38:24;;;;;;;;;;;18.50;70.60;;;;;;5112040;28;20369;-65
2023/07/07 08:40:51;;;;;;;;;;;18.60;70.70;;;;;;5113322;28;19908;-65
2023/07/07 08:43:17;;;;;;;;;;;18.60;70.60;;;;;;5113204;28;19930;-66
2023/07/07 08:45:51;;;;;;;;;;;18.70;70.70;;;;;;5113016;28;19912;-65
2023/07/07 08:48:36;;;;;;;;;;;18.70;70.30;;;;;;5113066;28;19908;-65
2023/07/07 08:51:04;;;;;;;;;;;18.70;70.20;;;;;;5113136;28;20280;-65
2023/07/07 08:53:36;;;;;;;;;;;18.80;70.20;;;;;;5112748;28;19912;-65
2023/07/07 08:56:01;;;;;;;;;;;18.80;70.10;;;;;;5112791;28;19919;-65
2023/07/07 08:58:35;;;;;;;;;;;18.90;70.10;;;;;;5112876;28;19908;-66
2023/07/07 09:01:18;;;;;;;;;;;18.90;69.90;;;;;;5113035;28;20276;-65
2023/07/07 09:03:50;;;;;;;;;;;18.90;69.80;;;;;;5112893;28;19958;-65
2023/07/07 09:06:31;;;;;;;;;;;19.00;69.70;;;;;;5110679;28;19915;-65
2023/07/07 09:09:04;;;;;;;;;;;19.10;69.70;;;;;;5112502;28;20283;-66
2023/07/07 09:11:49;;;;;;;;;;;19.10;69.40;;;;;;5112864;28;19973;-66
2023/07/07 09:14:15;;;;;;;;;;;19.20;69.40;;;;;;5112678;28;20386;-66
2023/07/07 09:16:42;;;;;;;;;;;19.20;69.40;;;;;;5112497;28;20554;-66
2023/07/07 09:19:09;;;;;;;;;;;19.30;69.40;;;;;;5112659;28;20030;-65
2023/07/07 09:21:43;;;;;;;;;;;19.30;69.20;;;;;;5112434;28;19908;-65
2023/07/07 09:24:41;;;;;;;;;;;19.40;69.20;;;;;;5106931;28;19916;-66
2023/07/07 09:27:27;;;;;;;;;;;19.40;69.00;;;;;;5064357;28;19999;-65
2023/07/07 09:29:59;;;;;;;;;;;19.50;69.00;;;;;;5091926;28;19995;-65
2023/07/07 09:32:24;;;;;;;;;;;19.50;69.00;;;;;;5091811;28;19999;-65
2023/07/07 09:34:50;;;;;;;;;;;19.60;69.00;;;;;;5104575;28;20006;-65
2023/07/07 09:37:23;;;;;;;;;;;19.60;69.00;;;;;;5111524;28;19908;-65
2023/07/07 09:39:51;;;;;;;;;;;19.70;68.80;;;;;;5112188;28;19916;-65
2023/07/07 09:42:22;;;;;;;;;;;19.80;68.80;;;;;;5112062;28;19984;-65
2023/07/07 09:44:48;;;;;;;;;;;19.90;68.60;;;;;;5112131;28;19919;-66
2023/07/07 09:47:19;;;;;;;;;;;19.90;68.50;;;;;;5110425;28;19912;-66
2023/07/07 09:49:48;;;;;;;;;;;20.00;68.60;;;;;;5111311;28;19912;-65
2023/07/07 09:52:13;;;;;;;;;;;20.10;68.50;;;;;;5111720;28;19912;-65
2023/07/07 09:54:40;;;;;;;;;;;20.10;68.40;;;;;;5111715;28;19933;-65
2023/07/07 09:57:12;;;;;;;;;;;20.20;68.40;;;;;;5111799;28;19916;-66
2023/07/07 09:59:41;;;;;;;;;;;20.20;68.40;;;;;;5112030;28;19943;-65
2023/07/07 10:02:17;;;;;;;;;;;20.30;68.40;;;;;;5112152;28;20289;-66
2023/07/07 10:04:45;;;;;;;;;;;20.40;68.30;;;;;;5111255;28;19943;-66
2023/07/07 10:07:12;;;;;;;;;;;20.50;68.40;;;;;;5111221;28;20514;-65
2023/07/07 10:09:38;;;;;;;;;;;20.50;68.20;;;;;;5111420;28;19942;-66
2023/07/07 10:12:03;;;;;;;;;;;20.60;68.00;;;;;;5112646;27;19955;-65
2023/07/07 10:14:29;;;;;;;;;;;20.70;67.90;;;;;;5127534;27;19912;-66
2023/07/07 10:17:08;;;;;;;;;;;20.80;67.90;;;;;;5131787;27;19943;-65
2023/07/07 10:19:44;;;;;;;;;;;20.90;67.90;;;;;;5126830;27;19916;-66
2023/07/07 10:22:14;;;;;;;;;;;20.90;67.70;;;;;;5109927;28;20376;-66
2023/07/07 10:24:40;;;;;;;;;;;21.00;68.00;;;;;;5101488;28;19939;-65
2023/07/07 10:27:09;;;;;;;;;;;21.10;68.00;;;;;;5105585;28;20354;-66
2023/07/07 10:29:37;;;;;;;;;;;21.20;68.50;;;;;;5112040;27;19919;-66
2023/07/07 10:32:03;;;;;;;;;;;21.30;68.50;;;;;;5121632;27;19922;-65
2023/07/07 10:34:31;;;;;;;;;;;21.40;68.60;;;;;;5109360;28;20284;-65
2023/07/07 10:36:57;;;;;;;;;;;21.50;68.50;;;;;;5109196;28;19912;-66
2023/07/07 10:39:24;;;;;;;;;;;21.60;68.00;;;;;;5109158;28;20273;-66
2023/07/07 10:41:49;;;;;;;;;;;21.70;67.90;;;;;;5110538;28;19915;-66
2023/07/07 10:44:15;;;;;;;;;;;21.80;68.60;;;;;;5110256;28;20359;-66
2023/07/07 10:46:40;;;;;;;;;;;21.90;68.40;;;;;;5110035;28;20271;-66
2023/07/07 10:49:14;;;;;;;;;;;21.90;68.10;;;;;;5110795;28;19988;-65
2023/07/07 10:51:46;;;;;;;;;;;22.00;68.40;;;;;;5110983;28;19912;-65
2023/07/07 10:54:17;;;;;;;;;;;22.20;68.50;;;;;;5110352;28;20421;-66
2023/07/07 10:56:46;;;;;;;;;;;22.30;68.10;;;;;;5109088;28;20278;-66
2023/07/07 10:59:30;;;;;;;;;;;22.40;68.30;;;;;;5110347;28;19916;-65
2023/07/07 11:02:02;;;;;;;;;;;22.50;68.10;;;;;;5109711;28;19915;-65
2023/07/07 11:04:34;;;;;;;;;;;22.70;68.10;;;;;;5110411;28;19912;-65
2023/07/07 11:06:59;;;;;;;;;;;22.80;68.40;;;;;;5109679;28;20433;-66
2023/07/07 11:09:40;;;;;;;;;;;22.90;68.30;;;;;;5110414;28;19912;-65
2023/07/07 11:12:24;;;;;;;;;;;23.10;68.60;;;;;;5110545;28;19912;-65
2023/07/07 11:15:08;;;;;;;;;;;23.20;68.60;;;;;;5110450;28;19908;-66
2023/07/07 11:17:52;;;;;;;;;;;23.40;68.30;;;;;;5110221;28;19912;-66
2023/07/07 11:20:36;;;;;;;;;;;23.50;68.00;;;;;;5108922;28;19915;-66
2023/07/07 11:23:04;;;;;;;;;;;23.60;67.90;;;;;;5110082;28;19923;-66
2023/07/07 11:25:50;;;;;;;;;;;23.80;68.20;;;;;;5096063;28;20465;-66
2023/07/07 11:28:45;;;;;;;;;;;23.90;68.00;;;;;;5102372;28;19914;-66
2023/07/07 11:31:24;;;;;;;;;;;24.00;67.60;;;;;;5100812;28;19938;-66
2023/07/07 11:34:02;;;;;;;;;;;24.10;67.60;;;;;;5109936;28;19914;-66
2023/07/07 11:36:27;;;;;;;;;;;24.20;67.60;;;;;;5109748;28;19983;-65
2023/07/07 11:38:55;;;;;;;;;;;24.30;67.50;;;;;;5109240;28;20388;-66
2023/07/07 11:41:28;;;;;;;;;;;24.40;67.40;;;;;;5109856;28;19912;-66
2023/07/07 11:44:09;;;;;;;;;;;24.50;67.50;;;;;;5109803;28;19971;-66
2023/07/07 11:46:34;;;;;;;;;;;24.60;67.50;;;;;;5109697;28;19911;-66
2023/07/07 11:49:15;;;;;;;;;;;24.70;67.30;;;;;;5109666;28;19916;-66
2023/07/07 11:51:50;;;;;;;;;;;24.80;67.20;;;;;;5109674;28;20417;-66
2023/07/07 11:54:19;;;;;;;;;;;24.90;67.50;;;;;;5107179;28;20264;-66
2023/07/07 11:56:59;;;;;;;;;;;25.00;67.70;;;;;;5108115;28;19908;-66
2023/07/07 11:59:34;;;;;;;;;;;25.10;67.80;;;;;;5108005;28;20304;-66
2023/07/07 12:02:01;;;;;;;;;;;25.20;67.80;;;;;;5109776;28;20672;-66
2023/07/07 12:04:43;;;;;;;;;;;25.30;67.40;;;;;;5109588;28;19930;-66
2023/07/07 12:07:20;;;;;;;;;;;25.40;67.80;;;;;;5108440;28;19912;-66
2023/07/07 12:09:45;;;;;;;;;;;25.50;67.80;;;;;;5116771;27;19911;-66
2023/07/07 12:12:17;;;;;;;;;;;25.50;67.80;;;;;;5128363;27;19907;-66
2023/07/07 12:14:51;;;;;;;;;;;25.60;67.90;;;;;;5130147;27;19979;-66
2023/07/07 12:17:19;;;;;;;;;;;25.70;67.80;;;;;;5129731;27;20015;-66
2023/07/07 12:19:51;;;;;;;;;;;25.80;67.80;;;;;;5123182;27;19912;-66
2023/07/07 12:22:19;;;;;;;;;;;25.80;67.80;;;;;;5109292;28;19916;-66
2023/07/07 12:25:04;;;;;;;;;;;25.90;67.60;;;;;;5097348;28;20016;-66
2023/07/07 12:27:33;;;;;;;;;;;26.00;67.60;;;;;;5108612;28;20384;-66
2023/07/07 12:29:59;;;;;;;;;;;26.10;67.70;;;;;;5109283;28;19912;-66
2023/07/07 12:32:25;;;;;;;;;;;26.10;67.40;;;;;;5109323;28;19908;-66
2023/07/07 12:35:04;;;;;;;;;;;26.20;67.20;;;;;;5109405;28;20019;-66
2023/07/07 12:37:31;;;;;;;;;;;26.30;67.50;;;;;;5101652;28;19954;-66
2023/07/07 12:39:59;;;;;;;;;;;26.40;67.40;;;;;;5108769;28;19955;-66
2023/07/07 12:42:28;;;;;;;;;;;26.40;67.40;;;;;;5109280;28;19912;-66
2023/07/07 12:44:55;;;;;;;;;;;26.50;67.50;;;;;;5107541;28;19994;-66
2023/07/07 12:47:31;;;;;;;;;;;26.50;67.20;;;;;;5108612;28;19907;-66
2023/07/07 12:49:58;;;;;;;;;;;26.60;67.20;;;;;;5108574;28;19912;-66
2023/07/07 12:52:26;;;;;;;;;;;26.70;67.30;;;;;;5108138;28;19912;-66
2023/07/07 12:54:52;;;;;;;;;;;26.80;66.90;;;;;;5108280;28;19922;-66
2023/07/07 12:57:18;;;;;;;;;;;26.80;67.00;;;;;;5108010;28;20069;-66
2023/07/07 12:59:43;;;;;;;;;;;26.90;67.00;;;;;;5108244;28;20014;-66
2023/07/07 13:02:19;;;;;;;;;;;26.90;66.80;;;;;;5108096;28;19912;-66
2023/07/07 13:04:50;;;;;;;;;;;27.00;66.80;;;;;;5107352;28;20341;-66
2023/07/07 13:07:20;;;;;;;;;;;27.10;66.80;;;;;;5099463;28;19915;-66
2023/07/07 13:09:49;;;;;;;;;;;27.20;66.80;;;;;;5108288;28;19965;-66
2023/07/07 13:12:33;;;;;;;;;;;27.20;66.60;;;;;;5109104;28;19908;-66
2023/07/07 13:15:17;;;;;;;;;;;27.30;66.50;;;;;;5088542;28;19912;-66
2023/07/07 13:17:42;;;;;;;;;;;27.40;66.60;;;;;;5087981;28;20559;-66
2023/07/07 13:20:12;;;;;;;;;;;27.50;66.50;;;;;;5098477;28;19915;-66
2023/07/07 13:22:40;;;;;;;;;;;27.50;66.20;;;;;;5107285;28;20353;-66
2023/07/07 13:25:08;;;;;;;;;;;27.60;66.40;;;;;;5097585;28;19908;-66
2023/07/07 13:27:34;;;;;;;;;;;27.60;66.20;;;;;;5090710;28;19918;-66
2023/07/07 13:30:11;;;;;;;;;;;27.70;66.40;;;;;;5091987;28;19912;-66
2023/07/07 13:32:38;;;;;;;;;;;27.70;66.50;;;;;;5092350;28;20011;-66
2023/07/07 13:35:03;;;;;;;;;;;27.80;66.50;;;;;;5107151;28;19912;-66
2023/07/07 13:37:29;;;;;;;;;;;27.80;66.30;;;;;;5111777;28;19919;-66
2023/07/07 13:39:55;;;;;;;;;;;27.90;66.30;;;;;;5111976;28;20337;-66
2023/07/07 13:42:24;;;;;;;;;;;28.00;65.80;;;;;;5112541;28;20025;-66
2023/07/07 13:45:03;;;;;;;;;;;28.00;65.80;;;;;;5112242;28;19923;-66
2023/07/07 13:47:31;;;;;;;;;;;28.10;65.70;;;;;;5111942;28;19942;-66
2023/07/07 13:49:58;;;;;;;;;;;28.10;65.60;;;;;;5112262;27;19915;-66
2023/07/07 13:52:26;;;;;;;;;;;28.20;65.40;;;;;;5112367;28;20037;-66
2023/07/07 13:54:51;;;;;;;;;;;28.30;65.10;;;;;;5109967;28;19919;-66
2023/07/07 13:57:23;;;;;;;;;;;28.30;65.20;;;;;;5112053;28;19908;-66
2023/07/07 13:59:49;;;;;;;;;;;28.30;65.40;;;;;;5111943;28;19916;-66
2023/07/07 14:02:15;;;;;;;;;;;28.40;65.40;;;;;;5112119;28;19912;-66
2023/07/07 14:04:44;;;;;;;;;;;28.40;65.40;;;;;;5109748;28;20287;-66
2023/07/07 14:07:17;;;;;;;;;;;28.50;65.20;;;;;;5111586;28;19922;-66
2023/07/07 14:09:44;;;;;;;;;;;28.60;65.10;;;;;;5113032;27;20564;-66
2023/07/07 14:12:11;;;;;;;;;;;28.60;65.10;;;;;;5128471;27;19914;-66
2023/07/07 14:14:37;;;;;;;;;;;28.70;65.10;;;;;;5132539;27;20352;-66
2023/07/07 14:17:08;;;;;;;;;;;28.70;65.10;;;;;;5131897;27;19996;-66
2023/07/07 14:19:34;;;;;;;;;;;28.70;64.80;;;;;;5127133;27;19922;-66
2023/07/07 14:21:59;;;;;;;;;;;28.70;64.80;;;;;;5111560;28;19911;-66
2023/07/07 14:24:26;;;;;;;;;;;28.90;64.40;;;;;;5104029;28;20360;-66